createdAt,value
2023-01-29T00:01:18.503Z,0.25
2023-01-29T00:03:52.374Z,0.51
2023-01-29T00:06:25.148Z,0.29
2023-01-29T00:08:58.553Z,-0.32
2023-01-29T00:11:32.009Z,0.38
2023-01-29T00:14:05.210Z,-0.47
2023-01-29T00:16:39.508Z,-0.46
2023-01-29T00:19:12.348Z,0.15
2023-01-29T00:21:45.133Z,0.39
2023-01-29T00:24:17.982Z,0.30
2023-01-29T00:26:51.177Z,0.34
2023-01-29T00:29:23.984Z,0.43
2023-01-29T00:31:58.235Z,-0.02
2023-01-29T00:34:31.098Z,0.36
2023-01-29T00:37:09.115Z,0.44
2023-01-29T00:39:47.869Z,0.56
2023-01-29T00:42:38.746Z,0.39
2023-01-29T00:45:11.897Z,0.29
2023-01-29T00:47:46.171Z,0.06
2023-01-29T00:50:19.638Z,0.34
2023-01-29T00:52:54.837Z,0.33
2023-01-29T00:55:28.000Z,0.23
2023-01-29T00:58:00.823Z,0.60
2023-01-29T01:00:33.959Z,0.34
2023-01-29T01:03:07.273Z,-0.26
2023-01-29T01:05:42.647Z,0.16
2023-01-29T01:08:33.027Z,-0.09
2023-01-29T01:11:06.557Z,0.63
2023-01-29T01:13:39.426Z,0.28
2023-01-29T01:16:12.817Z,0.38
2023-01-29T01:18:48.325Z,-0.35
2023-01-29T01:21:21.067Z,0.24
2023-01-29T01:23:53.877Z,0.60
2023-01-29T01:26:26.639Z,0.55
2023-01-29T01:28:59.600Z,0.21
2023-01-29T01:31:32.635Z,-0.09
2023-01-29T01:34:07.148Z,0.27
2023-01-29T01:36:41.361Z,0.22
2023-01-29T01:39:14.140Z,0.10
2023-01-29T01:41:47.250Z,0.25
2023-01-29T01:45:00.651Z,0.32
2023-01-29T01:47:39.418Z,0.23
2023-01-29T01:50:19.956Z,0.19
2023-01-29T01:52:56.849Z,0.07
2023-01-29T01:55:34.259Z,0.17
2023-01-29T01:58:11.402Z,0.23
2023-01-29T02:00:44.535Z,-0.30
2023-01-29T02:03:38.338Z,0.19
2023-01-29T02:06:29.896Z,-0.04
2023-01-29T02:09:24.220Z,0.17
2023-01-29T02:11:57.352Z,0.14
2023-01-29T02:14:31.948Z,-0.31
2023-01-29T02:17:04.879Z,-0.09
2023-01-29T02:19:46.700Z,-0.39
2023-01-29T02:22:42.971Z,-0.04
2023-01-29T02:25:49.043Z,-0.32
2023-01-29T02:28:41.335Z,-0.17
2023-01-29T02:31:21.042Z,-0.21
2023-01-29T02:34:05.085Z,-0.19
2023-01-29T02:36:46.200Z,0.36
2023-01-29T02:39:29.804Z,0.14
2023-01-29T02:42:12.737Z,-0.40
2023-01-29T02:44:53.157Z,0.27
2023-01-29T02:47:31.898Z,0.32
2023-01-29T02:50:14.347Z,0.09
2023-01-29T02:52:56.867Z,0.36
2023-01-29T02:55:35.443Z,0.27
2023-01-29T02:58:12.787Z,0.26
2023-01-29T03:00:50.526Z,-0.35
2023-01-29T03:03:30.268Z,0.23
2023-01-29T03:06:07.372Z,0.32
2023-01-29T03:08:45.547Z,-0.18
2023-01-29T03:11:19.365Z,0.08
2023-01-29T03:13:55.892Z,0.00
2023-01-29T03:16:37.086Z,-0.24
2023-01-29T03:19:16.254Z,-0.33
2023-01-29T03:21:59.058Z,-0.19
2023-01-29T03:24:59.675Z,-0.65
2023-01-29T03:27:56.179Z,-0.21
2023-01-29T03:30:49.174Z,-0.13
2023-01-29T03:33:44.743Z,-0.34
2023-01-29T03:36:21.445Z,-0.59
2023-01-29T03:38:54.508Z,-1.08
2023-01-29T03:41:32.393Z,-1.08
2023-01-29T03:44:14.996Z,-1.15
2023-01-29T03:46:54.557Z,-0.74
2023-01-29T03:49:39.180Z,-0.60
2023-01-29T03:52:21.299Z,-0.23
2023-01-29T03:55:06.903Z,-0.40
2023-01-29T03:57:45.539Z,-0.68
2023-01-29T04:00:25.974Z,-0.46
2023-01-29T04:03:13.738Z,-0.23
2023-01-29T04:05:52.436Z,-0.16
2023-01-29T04:08:35.200Z,-0.37
2023-01-29T04:11:15.219Z,-0.56
2023-01-29T04:13:48.521Z,-0.80
2023-01-29T04:16:28.220Z,-0.71
2023-01-29T04:19:19.887Z,-0.69
2023-01-29T04:22:05.160Z,-0.65
2023-01-29T04:24:38.842Z,-0.70
2023-01-29T04:27:28.239Z,-0.57
2023-01-29T04:30:08.778Z,-1.13
2023-01-29T04:32:58.980Z,-0.49
2023-01-29T04:35:40.241Z,-0.49
2023-01-29T04:38:26.931Z,-0.79
2023-01-29T04:41:06.593Z,-0.46
2023-01-29T04:43:48.408Z,-0.47
2023-01-29T04:46:28.208Z,-0.93
2023-01-29T04:49:11.565Z,-0.95
2023-01-29T04:51:52.433Z,-1.01
2023-01-29T04:54:36.671Z,-0.60
2023-01-29T04:57:17.216Z,-0.85
2023-01-29T04:59:56.764Z,-1.00
2023-01-29T05:02:31.242Z,-1.07
2023-01-29T05:05:06.990Z,-0.68
2023-01-29T05:07:41.653Z,-0.32
2023-01-29T05:10:19.128Z,-0.62
2023-01-29T05:12:56.808Z,-0.78
2023-01-29T05:15:35.668Z,-1.11
2023-01-29T05:18:10.208Z,-0.80
2023-01-29T05:20:45.339Z,-0.79
2023-01-29T05:23:19.321Z,-0.68
2023-01-29T05:25:53.710Z,-0.54
2023-01-29T05:28:25.463Z,-0.46
2023-01-29T05:30:59.388Z,-0.86
2023-01-29T05:33:32.759Z,-0.96
2023-01-29T05:36:07.015Z,-0.40
2023-01-29T05:38:40.985Z,-0.38
2023-01-29T05:41:16.419Z,-0.14
2023-01-29T05:43:49.298Z,-0.16
2023-01-29T05:46:22.145Z,-0.38
2023-01-29T05:48:54.961Z,-0.15
2023-01-29T05:51:27.750Z,-0.63
2023-01-29T05:54:00.699Z,-0.70
2023-01-29T05:56:35.077Z,-0.67
2023-01-29T05:59:08.562Z,-0.24
2023-01-29T06:01:41.445Z,-0.19
2023-01-29T06:04:14.277Z,-0.48
2023-01-29T06:06:47.152Z,-0.57
2023-01-29T06:09:20.027Z,-0.85
2023-01-29T06:11:54.183Z,-0.84
2023-01-29T06:14:27.201Z,-0.87
2023-01-29T06:17:00.001Z,-0.60
2023-01-29T06:19:32.807Z,-0.42
2023-01-29T06:22:05.830Z,-1.01
2023-01-29T06:24:38.633Z,-0.33
2023-01-29T06:27:12.742Z,-0.47
2023-01-29T06:29:45.685Z,-1.11
2023-01-29T06:32:19.908Z,-0.66
2023-01-29T06:34:53.237Z,-0.82
2023-01-29T06:37:26.028Z,-0.91
2023-01-29T06:39:59.069Z,-0.87
2023-01-29T06:42:35.669Z,-0.43
2023-01-29T06:45:09.771Z,-1.13
2023-01-29T06:47:42.558Z,-0.63
2023-01-29T06:50:15.769Z,-0.59
2023-01-29T06:52:49.807Z,-0.54
2023-01-29T06:55:22.602Z,-0.44
2023-01-29T06:57:56.795Z,-0.47
2023-01-29T07:00:31.444Z,-0.70
2023-01-29T07:03:05.041Z,-0.71
2023-01-29T07:05:38.114Z,-0.35
2023-01-29T07:08:10.913Z,-0.30
2023-01-29T07:10:43.718Z,-0.35
2023-01-29T07:13:18.232Z,-0.20
2023-01-29T07:15:51.063Z,-0.64
2023-01-29T07:18:23.945Z,-0.59
2023-01-29T07:20:57.187Z,-0.92
2023-01-29T07:23:29.967Z,-0.32
2023-01-29T07:26:04.289Z,-0.47
2023-01-29T07:28:39.922Z,-0.32
2023-01-29T07:31:15.445Z,-0.23
2023-01-29T07:33:48.860Z,-0.36
2023-01-29T07:36:21.689Z,-0.41
2023-01-29T07:38:54.460Z,-1.01
2023-01-29T07:41:27.225Z,-0.54
2023-01-29T07:44:01.987Z,-0.38
2023-01-29T07:46:34.793Z,-0.74
2023-01-29T07:49:07.582Z,-0.35
2023-01-29T07:51:40.415Z,-0.27
2023-01-29T07:54:13.208Z,-0.86
2023-01-29T07:56:46.334Z,-0.58
2023-01-29T07:59:20.520Z,-0.35
2023-01-29T08:01:53.416Z,-0.36
2023-01-29T08:04:26.671Z,-0.57
2023-01-29T08:06:59.530Z,-0.46
2023-01-29T08:09:32.748Z,-0.89
2023-01-29T08:12:06.266Z,-0.96
2023-01-29T08:14:40.479Z,-0.48
2023-01-29T08:17:13.415Z,-0.47
2023-01-29T08:19:46.244Z,-0.52
2023-01-29T08:22:19.370Z,-0.61
2023-01-29T08:24:59.876Z,-0.28
2023-01-29T08:27:33.290Z,-0.33
2023-01-29T08:30:09.075Z,-0.31
2023-01-29T08:32:42.003Z,-0.24
2023-01-29T08:35:14.898Z,-0.25
2023-01-29T08:37:53.932Z,-0.19
2023-01-29T08:40:28.125Z,-0.27
2023-01-29T08:43:02.578Z,0.01
2023-01-29T08:45:39.256Z,-0.37
2023-01-29T08:48:12.481Z,-0.36
2023-01-29T08:50:45.453Z,-0.70
2023-01-29T08:53:19.857Z,-0.04
2023-01-29T08:55:53.428Z,-0.16
2023-01-29T08:58:26.395Z,-0.21
2023-01-29T09:01:08.789Z,-0.67
2023-01-29T09:03:43.751Z,0.19
2023-01-29T09:06:16.695Z,0.30
2023-01-29T09:08:49.814Z,-0.13
2023-01-29T09:11:22.712Z,0.12
2023-01-29T09:13:55.493Z,-0.22
2023-01-29T09:16:29.718Z,0.20
2023-01-29T09:19:02.515Z,0.13
2023-01-29T09:21:35.431Z,0.51
2023-01-29T09:24:10.855Z,-0.47
2023-01-29T09:26:43.689Z,-0.14
2023-01-29T09:29:16.681Z,-0.07
2023-01-29T09:31:50.878Z,0.25
2023-01-29T09:34:23.684Z,0.44
2023-01-29T09:36:56.441Z,0.50
2023-01-29T09:39:29.619Z,0.26
2023-01-29T09:42:09.195Z,0.28
2023-01-29T09:44:55.403Z,0.47
2023-01-29T09:47:30.892Z,0.68
2023-01-29T09:50:08.914Z,0.57
2023-01-29T09:52:47.295Z,0.59
2023-01-29T09:55:26.001Z,0.75
2023-01-29T09:58:02.525Z,0.72
2023-01-29T10:00:41.589Z,0.40
2023-01-29T10:03:30.882Z,0.22
2023-01-29T10:06:22.190Z,0.39
2023-01-29T10:09:17.929Z,0.45
2023-01-29T10:12:03.350Z,0.47
2023-01-29T10:14:46.242Z,0.02
2023-01-29T10:17:36.706Z,0.23
2023-01-29T10:20:43.210Z,0.33
2023-01-29T10:23:22.748Z,0.53
2023-01-29T10:25:56.184Z,0.63
2023-01-29T10:28:35.807Z,0.24
2023-01-29T10:31:13.923Z,0.41
2023-01-29T10:34:02.101Z,0.43
2023-01-29T10:36:43.747Z,0.90
2023-01-29T10:39:19.156Z,0.67
2023-01-29T10:42:07.182Z,0.75
2023-01-29T10:44:51.595Z,0.42
2023-01-29T10:47:47.948Z,0.32
2023-01-29T10:50:33.413Z,0.05
2023-01-29T10:53:20.995Z,0.35
2023-01-29T10:56:07.916Z,0.10
2023-01-29T10:58:52.555Z,0.25
2023-01-29T11:01:26.748Z,0.04
2023-01-29T11:04:03.369Z,0.69
2023-01-29T11:06:37.725Z,0.84
2023-01-29T11:09:21.412Z,0.72
2023-01-29T11:11:59.180Z,0.51
2023-01-29T11:14:38.440Z,0.60
2023-01-29T11:17:16.734Z,0.78
2023-01-29T11:19:52.001Z,0.59
2023-01-29T11:22:26.840Z,0.85
2023-01-29T11:25:16.535Z,1.14
2023-01-29T11:27:51.329Z,1.37
2023-01-29T11:30:26.790Z,1.61
2023-01-29T11:33:08.748Z,1.22
2023-01-29T11:35:41.531Z,1.12
2023-01-29T11:38:23.675Z,1.45
2023-01-29T11:41:07.790Z,1.38
2023-01-29T11:43:40.606Z,1.16
2023-01-29T11:46:16.256Z,1.30
2023-01-29T11:48:52.057Z,1.25
2023-01-29T11:51:27.421Z,0.72
2023-01-29T11:54:03.300Z,0.67
2023-01-29T11:56:43.704Z,0.97
2023-01-29T11:59:27.295Z,1.23
2023-01-29T12:02:07.699Z,0.76
2023-01-29T12:04:41.335Z,1.01
2023-01-29T12:07:18.991Z,0.82
2023-01-29T12:09:55.515Z,1.24
2023-01-29T12:12:39.367Z,1.21
2023-01-29T12:15:22.151Z,1.00
2023-01-29T12:18:03.376Z,1.20
2023-01-29T12:20:39.848Z,1.15
2023-01-29T12:23:33.746Z,1.03
2023-01-29T12:26:10.691Z,0.99
2023-01-29T12:28:54.777Z,1.06
2023-01-29T12:31:37.961Z,1.36
2023-01-29T12:34:21.891Z,1.58
2023-01-29T12:37:00.732Z,1.78
2023-01-29T12:39:33.771Z,1.97
2023-01-29T12:42:17.830Z,1.80
2023-01-29T12:44:55.873Z,2.04
2023-01-29T12:47:34.696Z,1.84
2023-01-29T12:50:15.745Z,1.40
2023-01-29T12:52:54.067Z,1.58
2023-01-29T12:55:33.786Z,1.80
2023-01-29T12:58:13.687Z,2.10
2023-01-29T13:00:52.602Z,1.91
2023-01-29T13:03:30.998Z,2.16
2023-01-29T13:06:09.669Z,2.30
2023-01-29T13:08:46.448Z,1.94
2023-01-29T13:11:23.563Z,1.98
2023-01-29T13:14:01.712Z,1.60
2023-01-29T13:16:41.956Z,1.77
2023-01-29T13:19:24.282Z,1.46
2023-01-29T13:22:01.054Z,1.67
2023-01-29T13:24:40.120Z,1.80
2023-01-29T13:27:23.014Z,2.13
2023-01-29T13:29:57.334Z,2.28
2023-01-29T13:32:34.000Z,2.01
2023-01-29T13:35:15.258Z,2.40
2023-01-29T13:37:51.024Z,2.46
2023-01-29T13:40:26.951Z,2.78
2023-01-29T13:43:00.341Z,2.57
2023-01-29T13:45:37.134Z,2.73
2023-01-29T13:48:21.054Z,2.55
2023-01-29T13:50:56.349Z,2.51
2023-01-29T13:53:35.052Z,2.53
2023-01-29T13:56:42.996Z,2.47
2023-01-29T13:59:23.824Z,2.20
2023-01-29T14:02:05.185Z,2.43
2023-01-29T14:04:39.463Z,2.89
2023-01-29T14:08:00.404Z,3.24
2023-01-29T14:10:37.736Z,3.18
2023-01-29T14:13:28.983Z,3.08
2023-01-29T14:16:29.376Z,2.32
2023-01-29T14:19:03.693Z,2.59
2023-01-29T14:21:39.101Z,2.52
2023-01-29T14:24:19.645Z,2.38
2023-01-29T14:26:56.291Z,2.40
2023-01-29T14:29:35.408Z,2.36
2023-01-29T14:32:20.378Z,2.24
2023-01-29T14:35:00.820Z,1.99
2023-01-29T14:37:40.625Z,2.28
2023-01-29T14:40:22.838Z,2.46
2023-01-29T14:43:00.989Z,2.07
2023-01-29T14:45:35.140Z,1.73
2023-01-29T14:48:39.627Z,2.23
2023-01-29T14:51:15.603Z,2.08
2023-01-29T14:53:59.499Z,2.33
2023-01-29T14:56:36.537Z,2.25
2023-01-29T14:59:17.430Z,2.28
2023-01-29T15:01:55.748Z,2.15
2023-01-29T15:04:33.380Z,2.36
2023-01-29T15:07:16.557Z,1.97
2023-01-29T15:10:01.313Z,1.81
2023-01-29T15:12:47.199Z,2.00
2023-01-29T15:15:27.465Z,1.32
2023-01-29T15:18:03.124Z,1.84
2023-01-29T15:20:37.621Z,2.05
2023-01-29T15:23:26.641Z,2.09
2023-01-29T15:26:03.252Z,1.94
2023-01-29T15:28:36.974Z,1.47
2023-01-29T15:31:14.638Z,1.76
2023-01-29T15:33:51.893Z,1.59
2023-01-29T15:36:27.502Z,1.87
2023-01-29T15:39:17.253Z,1.78
2023-01-29T15:41:52.719Z,1.45
2023-01-29T15:44:25.720Z,1.58
2023-01-29T15:47:02.321Z,1.71
2023-01-29T15:49:37.426Z,1.36
2023-01-29T15:52:18.518Z,1.29
2023-01-29T15:54:52.366Z,1.23
2023-01-29T15:57:30.503Z,1.12
2023-01-29T16:00:04.697Z,0.93
2023-01-29T16:02:43.704Z,1.01
2023-01-29T16:05:19.665Z,1.28
2023-01-29T16:07:53.608Z,0.90
2023-01-29T16:10:29.273Z,1.07
2023-01-29T16:13:04.955Z,1.03
2023-01-29T16:15:40.279Z,0.96
2023-01-29T16:18:22.746Z,1.03
2023-01-29T16:20:57.294Z,0.92
2023-01-29T16:23:34.832Z,0.69
2023-01-29T16:26:10.332Z,0.59
2023-01-29T16:28:46.038Z,0.76
2023-01-29T16:31:24.702Z,0.77
2023-01-29T16:33:58.756Z,0.39
2023-01-29T16:36:31.741Z,0.76
2023-01-29T16:39:14.960Z,0.39
2023-01-29T16:42:20.352Z,0.39
2023-01-29T16:44:57.722Z,0.68
2023-01-29T16:47:34.218Z,0.59
2023-01-29T16:50:36.170Z,0.74
2023-01-29T16:53:14.165Z,0.73
2023-01-29T16:55:49.771Z,0.86
2023-01-29T16:58:25.940Z,0.69
2023-01-29T17:01:03.816Z,0.59
2023-01-29T17:03:40.276Z,0.58
2023-01-29T17:06:19.517Z,0.52
2023-01-29T17:08:53.314Z,0.55
2023-01-29T17:11:31.059Z,0.32
2023-01-29T17:14:06.922Z,0.33
2023-01-29T17:16:51.356Z,0.30
2023-01-29T17:19:25.554Z,0.26
2023-01-29T17:21:59.091Z,0.30
2023-01-29T17:24:32.555Z,0.18
2023-01-29T17:27:05.425Z,0.22
2023-01-29T17:29:38.163Z,0.13
2023-01-29T17:32:12.684Z,0.08
2023-01-29T17:34:46.306Z,-0.01
2023-01-29T17:37:20.187Z,0.20
2023-01-29T17:39:52.951Z,0.03
2023-01-29T17:42:25.739Z,0.18
2023-01-29T17:44:58.448Z,0.25
2023-01-29T17:47:32.604Z,0.24
2023-01-29T17:50:17.533Z,0.18
2023-01-29T17:52:50.524Z,-0.01
2023-01-29T17:55:23.397Z,-0.05
2023-01-29T17:57:56.156Z,-0.10
2023-01-29T18:00:28.959Z,0.04
2023-01-29T18:03:03.105Z,0.06
2023-01-29T18:05:36.071Z,-0.21
2023-01-29T18:08:16.575Z,-0.17
2023-01-29T18:10:49.314Z,-0.11
2023-01-29T18:13:22.118Z,-0.31
2023-01-29T18:15:55.585Z,-0.33
2023-01-29T18:18:29.756Z,-0.20
2023-01-29T18:21:02.504Z,-0.38
2023-01-29T18:23:35.280Z,-0.20
2023-01-29T18:26:08.399Z,-0.17
2023-01-29T18:28:43.434Z,-0.17
2023-01-29T18:31:16.215Z,-0.30
2023-01-29T18:33:50.432Z,-0.39
2023-01-29T18:36:23.467Z,-0.35
2023-01-29T18:38:56.832Z,-0.47
2023-01-29T18:41:29.669Z,-0.71
2023-01-29T18:44:02.638Z,-0.35
2023-01-29T18:46:35.433Z,-0.38
2023-01-29T18:49:10.709Z,-0.41
2023-01-29T18:51:43.468Z,-0.31
2023-01-29T18:54:18.380Z,-0.23
2023-01-29T18:57:13.843Z,-0.33
2023-01-29T18:59:45.209Z,-0.38
2023-01-29T19:02:19.602Z,-0.23
2023-01-29T19:04:53.833Z,-0.23
2023-01-29T19:07:26.729Z,-0.44
2023-01-29T19:09:59.772Z,-0.52
2023-01-29T19:12:33.777Z,-0.60
2023-01-29T19:15:07.978Z,-0.99
2023-01-29T19:17:40.724Z,-0.79
2023-01-29T19:20:15.609Z,-1.37
2023-01-29T19:22:48.696Z,-1.81
2023-01-29T19:25:21.839Z,-1.94
2023-01-29T19:27:54.685Z,-1.59
2023-01-29T19:30:27.478Z,-1.36
2023-01-29T19:33:00.420Z,-1.23
2023-01-29T19:35:34.596Z,-1.26
2023-01-29T19:38:07.508Z,-1.55
2023-01-29T19:40:40.341Z,-1.77
2023-01-29T19:43:15.267Z,-1.70
2023-01-29T19:45:50.843Z,-1.89
2023-01-29T19:48:23.940Z,-1.86
2023-01-29T19:50:59.891Z,-1.47
2023-01-29T19:53:32.734Z,-1.98
2023-01-29T19:56:07.730Z,-2.06
2023-01-29T19:58:40.585Z,-1.91
2023-01-29T20:01:16.267Z,-1.42
2023-01-29T20:03:50.539Z,-1.27
2023-01-29T20:06:26.928Z,-1.26
2023-01-29T20:09:02.177Z,-1.95
2023-01-29T20:11:35.181Z,-2.02
2023-01-29T20:14:07.921Z,-1.54
2023-01-29T20:16:40.935Z,-2.09
2023-01-29T20:19:17.900Z,-2.10
2023-01-29T20:21:52.242Z,-1.75
2023-01-29T20:24:26.396Z,-1.71
2023-01-29T20:26:59.961Z,-1.65
2023-01-29T20:29:32.826Z,-1.43
2023-01-29T20:32:07.918Z,-1.48
2023-01-29T20:34:41.321Z,-1.96
2023-01-29T20:37:15.472Z,-2.07
2023-01-29T20:39:48.423Z,-1.48
2023-01-29T20:42:21.234Z,-1.88
2023-01-29T20:44:54.056Z,-2.04
2023-01-29T20:47:26.902Z,-2.12
2023-01-29T20:49:59.802Z,-2.01
2023-01-29T20:52:34.006Z,-2.13
2023-01-29T20:55:11.088Z,-2.06
2023-01-29T20:57:44.177Z,-2.08
2023-01-29T21:00:37.222Z,-2.24
2023-01-29T21:03:10.114Z,-1.85
2023-01-29T21:05:43.061Z,-1.74
2023-01-29T21:08:17.347Z,-1.73
2023-01-29T21:10:50.610Z,-1.78
2023-01-29T21:13:23.667Z,-1.86
2023-01-29T21:15:56.519Z,-1.99
2023-01-29T21:18:30.018Z,-1.95
2023-01-29T21:21:02.822Z,-2.47
2023-01-29T21:23:36.994Z,-3.33
2023-01-29T21:26:09.892Z,-3.48
2023-01-29T21:28:42.692Z,-3.51
2023-01-29T21:31:16.931Z,-3.80
2023-01-29T21:33:49.976Z,-3.69
2023-01-29T21:36:22.755Z,-3.47
2023-01-29T21:38:59.544Z,-3.63
2023-01-29T21:41:46.277Z,-3.66
2023-01-29T21:44:19.087Z,-3.61
2023-01-29T21:46:51.893Z,-3.70
2023-01-29T21:49:25.023Z,-3.78
2023-01-29T21:51:57.919Z,-3.68
2023-01-29T21:54:35.476Z,-3.66
2023-01-29T21:57:12.845Z,-3.37
2023-01-29T21:59:47.364Z,-3.47
2023-01-29T22:02:27.658Z,-3.53
2023-01-29T22:05:17.745Z,-3.43
2023-01-29T22:07:51.521Z,-3.64
2023-01-29T22:10:25.915Z,-3.24
2023-01-29T22:13:00.810Z,-3.28
2023-01-29T22:15:33.703Z,-2.95
2023-01-29T22:18:06.811Z,-2.95
2023-01-29T22:20:39.655Z,-2.86
2023-01-29T22:23:12.753Z,-2.49
2023-01-29T22:25:46.976Z,-2.26
2023-01-29T22:28:19.926Z,-2.07
2023-01-29T22:30:52.761Z,-2.05
2023-01-29T22:33:25.596Z,-1.87
2023-01-29T22:35:58.713Z,-1.75
2023-01-29T22:38:32.002Z,-1.71
2023-01-29T22:41:06.250Z,-1.73
2023-01-29T22:43:40.953Z,-1.73
2023-01-29T22:46:13.958Z,-1.59
2023-01-29T22:48:46.816Z,-1.68
2023-01-29T22:51:19.625Z,-1.53
2023-01-29T22:53:55.600Z,-1.48
2023-01-29T22:56:31.167Z,-1.53
2023-01-29T22:59:04.074Z,-1.27
2023-01-29T23:01:36.850Z,-1.48
2023-01-29T23:04:09.650Z,-1.44
2023-01-29T23:06:42.459Z,-1.29
2023-01-29T23:09:15.297Z,-1.21
2023-01-29T23:11:49.478Z,-1.38
2023-01-29T23:14:22.345Z,-1.29
2023-01-29T23:16:55.136Z,-1.43
2023-01-29T23:19:28.102Z,-1.39
2023-01-29T23:22:01.016Z,-1.27
2023-01-29T23:24:33.905Z,-1.27
2023-01-29T23:27:15.904Z,-1.20
2023-01-29T23:29:50.101Z,-1.37
2023-01-29T23:32:23.297Z,-1.52
2023-01-29T23:34:56.070Z,-1.41
2023-01-29T23:37:28.947Z,-1.41
2023-01-29T23:40:01.724Z,-1.45
2023-01-29T23:42:35.888Z,-1.29
2023-01-29T23:45:09.751Z,-1.23
2023-01-29T23:47:42.539Z,-1.38
2023-01-29T23:50:15.791Z,-1.46
2023-01-29T23:52:48.726Z,-1.55
2023-01-29T23:55:21.518Z,-1.36
2023-01-29T23:57:56.158Z,-1.42
